Time,TemperatureF,DewpointF,PressureIn,WindDirection,WindDirectionDegrees,WindSpeedMPH,WindSpeedGustMPH,Humidity,HourlyPrecipIn,Conditions,Clouds,dailyrainin,SoftwareType,DateUTC
2013-03-04 00:14:00,37.4,36.9,29.88,ESE,112,0.0,-999.0,98,-99.99,,,0.00,Acu-Link.com,2013-03-04 08:14:00,
2013-03-04 00:29:00,36.7,36.2,29.88,NNE,22,0.0,-999.0,98,-99.99,,,0.00,Acu-Link.com,2013-03-04 08:29:00,
2013-03-04 00:44:00,36.3,35.8,29.88,NNE,22,0.0,-999.0,98,-99.99,,,0.00,Acu-Link.com,2013-03-04 08:44:00,
2013-03-04 00:59:00,35.6,35.1,29.88,West,270,0.0,-999.0,98,-99.99,,,0.00,Acu-Link.com,2013-03-04 08:59:00,
2013-03-04 01:20:00,35.4,34.9,29.89,NNW,337,0.0,-999.0,98,-99.99,,,0.00,Acu-Link.com,2013-03-04 09:20:00,
2013-03-04 01:35:00,35.2,34.7,29.89,NE,45,0.0,-999.0,98,-99.99,,,0.00,Acu-Link.com,2013-03-04 09:35:00,
2013-03-04 01:50:00,35.2,34.7,29.89,NE,45,0.0,-999.0,98,-99.99,,,0.00,Acu-Link.com,2013-03-04 09:50:00,
2013-03-04 02:05:00,35.4,34.9,29.88,NNW,337,0.0,-999.0,98,-99.99,,,0.00,Acu-Link.com,2013-03-04 10:05:00,
2013-03-04 02:20:00,35.6,35.1,29.88,NE,45,0.0,-999.0,98,-99.99,,,0.00,Acu-Link.com,2013-03-04 10:20:00,
2013-03-04 02:35:00,36.9,36.4,29.88,SSW,202,0.0,-999.0,98,-99.99,,,0.00,Acu-Link.com,2013-03-04 10:35:00,
2013-03-04 02:50:00,37.0,36.5,29.88,North,0,0.0,-999.0,98,-99.99,,,0.00,Acu-Link.com,2013-03-04 10:50:00,
2013-03-04 03:05:00,37.0,36.5,29.88,SE,135,0.0,-999.0,98,-99.99,,,0.00,Acu-Link.com,2013-03-04 11:05:00,
2013-03-04 03:20:00,37.0,36.5,29.88,NE,45,1.7,-999.0,98,-99.99,,,0.00,Acu-Link.com,2013-03-04 11:20:00,
2013-03-04 03:35:00,37.4,36.9,29.88,ESE,112,0.0,-999.0,98,-99.99,,,0.00,Acu-Link.com,2013-03-04 11:35:00,
2013-03-04 03:51:00,37.0,36.5,29.88,NNE,22,0.0,-999.0,98,-99.99,,,0.00,Acu-Link.com,2013-03-04 11:51:00,
2013-03-04 04:06:00,36.7,36.2,29.87,East,90,0.0,-999.0,98,-99.99,,,0.00,Acu-Link.com,2013-03-04 12:06:00,
2013-03-04 04:21:00,37.2,36.7,29.89,ESE,112,0.0,-999.0,98,-99.99,,,0.00,Acu-Link.com,2013-03-04 12:21:00,
2013-03-04 04:36:00,37.8,37.3,29.88,NNE,22,2.2,-999.0,98,-99.99,,,0.00,Acu-Link.com,2013-03-04 12:36:00,
2013-03-04 04:51:00,38.1,37.6,29.89,WNW,292,1.7,-999.0,98,-99.99,,,0.00,Acu-Link.com,2013-03-04 12:51:00,
2013-03-04 05:06:00,37.9,37.4,29.90,SE,135,3.2,-999.0,98,-99.99,,,0.00,Acu-Link.com,2013-03-04 13:06:00,
2013-03-04 05:21:00,37.4,36.9,29.89,North,0,0.0,-999.0,98,-99.99,,,0.00,Acu-Link.com,2013-03-04 13:21:00,
2013-03-04 05:36:00,37.0,36.5,29.89,SSE,157,1.7,-999.0,98,-99.99,,,0.00,Acu-Link.com,2013-03-04 13:36:00,
2013-03-04 05:51:00,36.5,36.0,29.90,NNW,337,0.0,-999.0,98,-99.99,,,0.00,Acu-Link.com,2013-03-04 13:51:00,
2013-03-04 06:07:00,36.7,36.2,29.90,NNE,22,0.0,-999.0,98,-99.99,,,0.00,Acu-Link.com,2013-03-04 14:07:00,
2013-03-04 06:22:00,36.7,36.2,29.92,NNE,22,0.0,-999.0,98,-99.99,,,0.00,Acu-Link.com,2013-03-04 14:22:00,
2013-03-04 06:37:00,37.2,36.7,29.93,ESE,112,0.0,-999.0,98,-99.99,,,0.00,Acu-Link.com,2013-03-04 14:37:00,
2013-03-04 06:52:00,37.9,37.4,29.92,West,270,0.0,-999.0,98,-99.99,,,0.00,Acu-Link.com,2013-03-04 14:52:00,
2013-03-04 07:07:00,37.8,37.3,29.92,SE,135,2.2,-999.0,98,-99.99,,,0.00,Acu-Link.com,2013-03-04 15:07:00,
2013-03-04 07:22:00,39.2,38.7,29.93,SSE,157,1.7,-999.0,98,-99.99,,,0.00,Acu-Link.com,2013-03-04 15:22:00,
2013-03-04 07:37:00,41.0,40.5,29.93,North,0,2.7,-999.0,98,-99.99,,,0.00,Acu-Link.com,2013-03-04 15:37:00,
2013-03-04 07:52:00,41.5,41.0,29.93,ENE,67,1.7,-999.0,98,-99.99,,,0.00,Acu-Link.com,2013-03-04 15:52:00,
2013-03-04 08:07:00,43.0,42.5,29.94,SE,135,3.2,-999.0,98,-99.99,,,0.00,Acu-Link.com,2013-03-04 16:07:00,
2013-03-04 08:23:00,43.3,39.7,29.95,SSE,157,3.2,-999.0,87,-99.99,,,0.00,Acu-Link.com,2013-03-04 16:23:00,
2013-03-04 08:38:00,45.0,39.2,29.94,SW,225,3.7,-999.0,80,-99.99,,,0.00,Acu-Link.com,2013-03-04 16:38:00,
2013-03-04 08:53:00,46.0,38.5,29.95,SSE,157,0.0,-999.0,75,-99.99,,,0.00,Acu-Link.com,2013-03-04 16:53:00,
2013-03-04 09:08:00,47.3,38.4,29.95,SW,225,2.2,-999.0,71,-99.99,,,0.00,Acu-Link.com,2013-03-04 17:08:00,
2013-03-04 09:23:00,48.0,37.6,29.95,WNW,292,0.0,-999.0,67,-99.99,,,0.00,Acu-Link.com,2013-03-04 17:23:00,
2013-03-04 09:38:00,49.6,37.5,29.96,SSW,202,1.7,-999.0,63,-99.99,,,0.00,Acu-Link.com,2013-03-04 17:38:00,
2013-03-04 09:53:00,49.1,37.5,29.97,SSE,157,3.7,-999.0,64,-99.99,,,0.00,Acu-Link.com,2013-03-04 17:53:00,
2013-03-04 10:08:00,49.5,37.4,29.96,SW,225,3.2,-999.0,63,-99.99,,,0.00,Acu-Link.com,2013-03-04 18:08:00,
2013-03-04 10:23:00,50.7,36.5,29.96,WSW,247,4.2,-999.0,58,-99.99,,,0.00,Acu-Link.com,2013-03-04 18:23:00,
2013-03-04 10:39:00,52.7,36.5,29.97,SSW,202,3.7,-999.0,54,-99.99,,,0.00,Acu-Link.com,2013-03-04 18:39:00,
2013-03-04 10:54:00,54.9,35.6,29.96,ESE,112,3.2,-999.0,48,-99.99,,,0.00,Acu-Link.com,2013-03-04 18:54:00,
2013-03-04 11:09:00,54.7,34.9,29.95,WNW,292,3.2,-999.0,47,-99.99,,,0.00,Acu-Link.com,2013-03-04 19:09:00,
2013-03-04 11:24:00,55.9,33.7,29.95,WNW,292,5.3,-999.0,43,-99.99,,,0.00,Acu-Link.com,2013-03-04 19:24:00,
2013-03-04 11:39:00,56.5,34.9,29.95,SE,135,1.1,-999.0,44,-99.99,,,0.00,Acu-Link.com,2013-03-04 19:39:00,
2013-03-04 11:54:00,56.1,34.5,29.95,WNW,292,4.2,-999.0,44,-99.99,,,0.00,Acu-Link.com,2013-03-04 19:54:00,
2013-03-04 12:09:00,57.2,33.7,29.95,NNE,22,3.7,-999.0,41,-99.99,,,0.00,Acu-Link.com,2013-03-04 20:09:00,
2013-03-04 12:24:00,57.0,32.3,29.94,SE,135,1.1,-999.0,39,-99.99,,,0.00,Acu-Link.com,2013-03-04 20:24:00,
2013-03-04 12:39:00,58.3,34.1,29.94,SSW,202,4.2,-999.0,40,-99.99,,,0.00,Acu-Link.com,2013-03-04 20:39:00,
2013-03-04 12:55:00,58.6,31.7,29.94,West,270,2.2,-999.0,36,-99.99,,,0.00,Acu-Link.com,2013-03-04 20:55:00,
2013-03-04 13:10:00,59.0,32.1,29.93,North,0,2.2,-999.0,36,-99.99,,,0.00,Acu-Link.com,2013-03-04 21:10:00,
2013-03-04 13:25:00,59.4,31.0,29.93,NNE,22,3.2,-999.0,34,-99.99,,,0.00,Acu-Link.com,2013-03-04 21:25:00,
2013-03-04 13:40:00,59.2,29.4,29.93,SSW,202,3.2,-999.0,32,-99.99,,,0.00,Acu-Link.com,2013-03-04 21:40:00,
2013-03-04 13:55:00,60.3,28.7,29.93,WNW,292,4.2,-999.0,30,-99.99,,,0.00,Acu-Link.com,2013-03-04 21:55:00,
2013-03-04 14:10:00,61.0,28.5,29.93,NW,315,3.7,-999.0,29,-99.99,,,0.00,Acu-Link.com,2013-03-04 22:10:00,
2013-03-04 14:25:00,60.6,28.2,29.94,NNW,337,2.7,-999.0,29,-99.99,,,0.00,Acu-Link.com,2013-03-04 22:25:00,
2013-03-04 14:40:00,60.1,39.8,29.94,South,180,2.7,-999.0,47,-99.99,,,0.00,Acu-Link.com,2013-03-04 22:40:00,
2013-03-04 14:55:00,58.3,40.8,29.94,NNE,22,1.7,-999.0,52,-99.99,,,0.00,Acu-Link.com,2013-03-04 22:55:00,
2013-03-04 15:11:00,59.0,41.4,29.95,SW,225,2.2,-999.0,52,-99.99,,,0.00,Acu-Link.com,2013-03-04 23:11:00,
2013-03-04 15:26:00,57.7,38.7,29.94,WSW,247,0.0,-999.0,49,-99.99,,,0.00,Acu-Link.com,2013-03-04 23:26:00,
2013-03-04 15:41:00,58.3,36.5,29.94,ESE,112,2.2,-999.0,44,-99.99,,,0.00,Acu-Link.com,2013-03-04 23:41:00,
2013-03-04 15:56:00,58.5,37.2,29.95,South,180,2.2,-999.0,45,-99.99,,,0.00,Acu-Link.com,2013-03-04 23:56:00,
2013-03-04 16:11:00,57.6,38.1,29.95,WSW,247,3.2,-999.0,48,-99.99,,,0.00,Acu-Link.com,2013-03-05 00:11:00,
2013-03-04 16:26:00,56.7,37.2,29.95,South,180,0.0,-999.0,48,-99.99,,,0.00,Acu-Link.com,2013-03-05 00:26:00,
2013-03-04 16:41:00,56.8,36.8,29.96,SE,135,0.0,-999.0,47,-99.99,,,0.00,Acu-Link.com,2013-03-05 00:41:00,
2013-03-04 16:56:00,55.8,36.9,29.96,SW,225,0.0,-999.0,49,-99.99,,,0.00,Acu-Link.com,2013-03-05 00:56:00,
2013-03-04 17:11:00,56.7,36.7,29.96,SE,135,0.0,-999.0,47,-99.99,,,0.00,Acu-Link.com,2013-03-05 01:11:00,
2013-03-04 17:26:00,55.6,38.3,29.95,SSW,202,0.0,-999.0,52,-99.99,,,0.00,Acu-Link.com,2013-03-05 01:26:00,
2013-03-04 17:42:00,52.3,37.5,29.97,SSE,157,0.0,-999.0,57,-99.99,,,0.00,Acu-Link.com,2013-03-05 01:42:00,
2013-03-04 17:57:00,50.0,33.1,29.98,SSW,202,0.0,-999.0,52,-99.99,,,0.00,Acu-Link.com,2013-03-05 01:57:00,
2013-03-04 18:12:00,48.6,32.3,29.97,NNE,22,0.0,-999.0,53,-99.99,,,0.00,Acu-Link.com,2013-03-05 02:12:00,
2013-03-04 18:27:00,47.5,32.1,29.98,ENE,67,0.0,-999.0,55,-99.99,,,0.00,Acu-Link.com,2013-03-05 02:27:00,
2013-03-04 18:42:00,46.4,32.0,30.00,ENE,67,0.0,-999.0,57,-99.99,,,0.00,Acu-Link.com,2013-03-05 02:42:00,
2013-03-04 18:57:00,45.1,32.9,29.98,NE,45,0.0,-999.0,62,-99.99,,,0.00,Acu-Link.com,2013-03-05 02:57:00,
2013-03-04 19:12:00,44.4,33.4,29.99,North,0,0.0,-999.0,65,-99.99,,,0.00,Acu-Link.com,2013-03-05 03:12:00,
2013-03-04 19:27:00,44.1,33.5,29.99,East,90,0.0,-999.0,66,-99.99,,,0.00,Acu-Link.com,2013-03-05 03:27:00,
2013-03-04 19:42:00,44.4,32.6,29.98,NE,45,0.0,-999.0,63,-99.99,,,0.00,Acu-Link.com,2013-03-05 03:42:00,
2013-03-04 19:58:00,43.7,31.9,29.99,SE,135,0.0,-999.0,63,-99.99,,,0.00,Acu-Link.com,2013-03-05 03:58:00,
2013-03-04 20:13:00,42.1,34.1,29.99,South,180,0.0,-999.0,73,-99.99,,,0.00,Acu-Link.com,2013-03-05 04:13:00,
2013-03-04 20:28:00,41.2,35.5,30.00,ENE,67,0.0,-999.0,80,-99.99,,,0.00,Acu-Link.com,2013-03-05 04:28:00,
2013-03-04 20:43:00,41.4,35.1,30.00,NE,45,0.0,-999.0,78,-99.99,,,0.00,Acu-Link.com,2013-03-05 04:43:00,
2013-03-04 20:58:00,42.4,37.3,30.00,North,0,0.0,-999.0,82,-99.99,,,0.00,Acu-Link.com,2013-03-05 04:58:00,
2013-03-04 21:13:00,42.3,36.9,30.01,NE,45,0.0,-999.0,81,-99.99,,,0.00,Acu-Link.com,2013-03-05 05:13:00,
2013-03-04 21:28:00,43.0,37.3,30.00,NNE,22,0.0,-999.0,80,-99.99,,,0.00,Acu-Link.com,2013-03-05 05:28:00,
2013-03-04 21:43:00,44.4,37.0,30.00,SE,135,0.0,-999.0,75,-99.99,,,0.00,Acu-Link.com,2013-03-05 05:43:00,
2013-03-04 21:58:00,45.7,36.5,29.99,West,270,1.1,-999.0,70,-99.99,,,0.00,Acu-Link.com,2013-03-05 05:58:00,
2013-03-04 22:14:00,45.3,36.1,29.99,SE,135,0.0,-999.0,70,-99.99,,,0.00,Acu-Link.com,2013-03-05 06:14:00,
2013-03-04 22:29:00,44.2,36.4,29.99,NNE,22,0.0,-999.0,74,-99.99,,,0.00,Acu-Link.com,2013-03-05 06:29:00,
2013-03-04 22:44:00,44.8,36.3,29.99,NE,45,0.0,-999.0,72,-99.99,,,0.00,Acu-Link.com,2013-03-05 06:44:00,
2013-03-04 22:59:00,44.2,36.1,29.99,ENE,67,0.0,-999.0,73,-99.99,,,0.00,Acu-Link.com,2013-03-05 06:59:00,
2013-03-04 23:14:00,43.7,35.3,29.99,NNE,22,0.0,-999.0,72,-99.99,,,0.00,Acu-Link.com,2013-03-05 07:14:00,
2013-03-04 23:29:00,43.3,35.9,29.99,NE,45,0.0,-999.0,75,-99.99,,,0.00,Acu-Link.com,2013-03-05 07:29:00,
2013-03-04 23:44:00,42.8,36.7,30.01,NNE,22,0.0,-999.0,79,-99.99,,,0.00,Acu-Link.com,2013-03-05 07:44:00,
2013-03-04 23:59:00,43.7,39.8,30.00,ESE,112,0.0,-999.0,86,-99.99,,,0.00,Acu-Link.com,2013-03-05 07:59:00,